createdAt,value
2022-09-14T00:08:39.497Z,23.86
2022-09-14T00:23:56.419Z,22.77
2022-09-14T00:39:12.428Z,22.63
2022-09-14T00:54:28.398Z,22.53
2022-09-14T01:09:44.364Z,22.39
2022-09-14T01:25:01.312Z,22.08
2022-09-14T01:40:18.364Z,22.1
2022-09-14T01:55:35.253Z,22.09
2022-09-14T02:10:51.236Z,22.06
2022-09-14T02:26:08.176Z,21.74
2022-09-14T02:41:24.166Z,21.61
2022-09-14T02:56:40.108Z,21.46
2022-09-14T03:11:57.122Z,21.26
2022-09-14T03:27:15.084Z,21.33
2022-09-14T03:42:32.051Z,21.67
2022-09-14T03:57:47.992Z,21.41
2022-09-14T04:13:03.988Z,21.12
2022-09-14T04:28:21.070Z,21.24
2022-09-14T04:43:36.920Z,21
2022-09-14T04:58:52.861Z,20.54
2022-09-14T05:14:09.866Z,20.32
2022-09-14T05:29:27.832Z,19.96
2022-09-14T05:44:44.811Z,19.84
2022-09-14T06:00:00.774Z,19.91
2022-09-14T06:15:16.703Z,19.77
2022-09-14T06:30:33.700Z,19.62
2022-09-14T06:45:49.639Z,19.51
2022-09-14T07:01:05.708Z,19.51
2022-09-14T07:16:22.587Z,19.4
2022-09-14T07:31:40.595Z,19.49
2022-09-14T07:46:57.529Z,19.34
2022-09-14T08:02:13.651Z,19.44
2022-09-14T08:17:29.455Z,19.36
2022-09-14T08:32:46.429Z,19.43
2022-09-14T08:48:02.405Z,19.76
2022-09-14T09:03:19.376Z,20.57
2022-09-14T09:18:36.339Z,21.25
2022-09-14T09:33:53.307Z,22.69
2022-09-14T09:49:09.279Z,23.28
2022-09-14T10:04:25.246Z,22.71
2022-09-14T10:19:41.209Z,22.78
2022-09-14T10:34:58.180Z,23.58
2022-09-14T10:50:14.174Z,23.56
2022-09-14T11:05:31.113Z,23.85
2022-09-14T11:20:48.100Z,24.19
2022-09-14T11:36:05.045Z,24.87
2022-09-14T11:51:21.048Z,26.04
2022-09-14T12:06:36.991Z,27.43
2022-09-14T12:21:52.978Z,27.47
2022-09-14T12:37:12.129Z,27.94
2022-09-14T12:52:25.907Z,28.33
2022-09-14T13:07:42.871Z,28.94
2022-09-14T13:22:59.848Z,28.5
2022-09-14T13:38:16.813Z,28.63
2022-09-14T13:53:32.779Z,28.49
2022-09-14T14:08:48.845Z,29.01
2022-09-14T14:24:13.119Z,28.66
2022-09-14T14:39:21.675Z,28.28
2022-09-14T14:54:38.656Z,28.44
2022-09-14T15:09:55.616Z,27.75
2022-09-14T15:25:29.984Z,27.48
2022-09-14T15:40:30.597Z,27.42
2022-09-14T15:55:46.496Z,27.13
2022-09-14T15:56:27.368Z,27.13
2022-09-14T16:11:03.493Z,27.03
2022-09-14T16:26:35.243Z,26.83
2022-09-14T16:41:33.429Z,26.66
2022-09-14T16:56:50.354Z,26.49
2022-09-14T17:12:07.357Z,26.43
2022-09-14T17:27:24.299Z,26.3
2022-09-14T17:42:40.295Z,26.25
2022-09-14T17:57:56.233Z,26.18
2022-09-14T18:13:12.230Z,26.07
2022-09-14T18:28:29.166Z,26.04
2022-09-14T18:43:46.176Z,26.11
2022-09-14T18:59:03.132Z,26.1
2022-09-14T19:14:20.097Z,26.26
2022-09-14T19:29:37.032Z,25.69
2022-09-14T19:44:53.037Z,25.05
2022-09-14T20:00:09.016Z,24.34
2022-09-14T20:15:24.946Z,23.79
2022-09-14T20:30:41.962Z,23.24
2022-09-14T20:45:58.908Z,23.21
2022-09-14T21:01:15.933Z,23.34
2022-09-14T21:16:31.817Z,22.79
2022-09-14T21:31:48.945Z,20.83
2022-09-14T21:47:04.764Z,20.05
2022-09-14T22:02:20.781Z,18.8
2022-09-14T22:17:36.704Z,18.63
2022-09-14T22:32:53.675Z,18.45
2022-09-14T22:48:10.640Z,18.52
2022-09-14T23:03:27.619Z,18.15
2022-09-14T23:18:43.583Z,18
2022-09-14T23:34:00.552Z,17.96
2022-09-14T23:49:16.526Z,17.97
